Time;durP1;ratioP1;P1;durP2;ratioP2;P2;SDS_P1;SDS_P2;PMS_P1;PMS_P2;Temp;Humidity;BMP_temperature;BMP_pressure;BME280_temperature;BME280_humidity;BME280_pressure;Samples;Min_cycle;Max_cycle;Signal;HPM_P1;HPM_P2
2022/01/11 00:01:16;;;;;;;0.20;0.10;;;;;;;21.10;55.50;101338.66;4895076;29;20427;-60
2022/01/11 00:03:42;;;;;;;0.43;0.25;;;;;;;21.08;55.75;101339.81;4895126;29;20025;-60
2022/01/11 00:08:40;;;;;;;0.73;0.30;;;;;;;21.14;55.46;101336.53;4913819;29;20158;-60
2022/01/11 00:11:06;;;;;;;0.20;0.20;;;;;;;21.14;55.36;101341.88;4907611;29;20334;-60
2022/01/11 00:13:37;;;;;;;1.42;0.40;;;;;;;21.20;55.23;101349.28;4894513;29;20199;-60
2022/01/11 00:16:03;;;;;;;0.30;0.20;;;;;;;21.05;55.50;101351.63;4899467;29;20028;-60
2022/01/11 00:18:29;;;;;;;0.50;0.20;;;;;;;20.99;55.63;101346.88;4913458;29;20487;-60
2022/01/11 00:20:55;;;;;;;1.10;0.30;;;;;;;21.05;55.47;101356.13;4912266;29;20028;-60
2022/01/11 00:25:50;;;;;;;1.67;0.20;;;;;;;21.06;55.39;101353.31;4913541;29;20203;-61
2022/01/11 00:28:18;;;;;;;0.70;0.40;;;;;;;21.04;55.42;101349.94;4913366;29;20111;-61
2022/01/11 00:30:45;;;;;;;0.30;0.10;;;;;;;21.07;55.28;101351.47;4899602;28;20032;-61
2022/01/11 00:33:31;;;;;;;0.30;0.20;;;;;;;21.09;55.11;101366.38;4894535;29;20032;-61
2022/01/11 00:36:02;;;;;;;0.95;0.50;;;;;;;20.97;55.38;101367.53;4909804;29;20379;-61
2022/01/11 00:38:33;;;;;;;0.88;0.20;;;;;;;20.96;55.40;101366.69;4912631;29;20404;-60
2022/01/11 00:41:02;;;;;;;0.38;0.20;;;;;;;20.88;55.47;101363.94;4913313;29;20443;-60
2022/01/11 00:43:28;;;;;;;0.40;0.20;;;;;;;20.86;55.59;101378.44;4915698;29;20032;-61
2022/01/11 00:45:55;;;;;;;3.25;0.30;;;;;;;20.83;55.63;101381.38;4912448;29;20028;-61
2022/01/11 00:48:21;;;;;;;0.32;0.20;;;;;;;20.82;55.67;101377.06;4913082;29;20029;-61
2022/01/11 00:50:47;;;;;;;0.55;0.30;;;;;;;20.73;55.89;101374.25;4912815;29;20421;-61
2022/01/11 00:53:14;;;;;;;0.65;0.20;;;;;;;20.70;55.88;101379.06;4908190;29;20024;-61
2022/01/11 00:55:39;;;;;;;1.30;0.40;;;;;;;20.73;55.81;101376.91;4912459;29;20037;-61
2022/01/11 00:58:05;;;;;;;0.40;0.28;;;;;;;20.76;55.59;101370.47;4912322;29;20024;-61
2022/01/11 01:00:33;;;;;;;0.38;0.20;;;;;;;20.76;55.52;101378.47;4905722;29;20693;-61
2022/01/11 01:02:59;;;;;;;0.70;0.28;;;;;;;20.76;55.36;101379.31;4912265;29;20039;-61
2022/01/11 01:05:25;;;;;;;0.28;0.20;;;;;;;20.79;55.46;101383.50;4912288;29;20037;-61
2022/01/11 01:07:51;;;;;;;0.40;0.20;;;;;;;20.76;55.35;101384.66;4908274;29;20032;-61
2022/01/11 01:10:29;;;;;;;0.98;0.40;;;;;;;20.75;55.34;101388.31;4910859;29;20402;-61
2022/01/11 01:12:56;;;;;;;0.20;0.20;;;;;;;20.76;55.30;101391.81;4912012;29;20036;-61
2022/01/11 01:15:22;;;;;;;0.40;0.20;;;;;;;20.56;55.96;101380.34;4912743;29;20044;-61
2022/01/11 01:17:48;;;;;;;0.35;0.17;;;;;;;20.83;55.22;101390.22;4909352;29;20098;-61
2022/01/11 01:20:14;;;;;;;0.63;0.35;;;;;;;20.92;55.10;101388.50;4912655;29;20044;-60
2022/01/11 01:22:40;;;;;;;0.52;0.20;;;;;;;20.97;55.13;101394.22;4897985;29;20043;-61
2022/01/11 01:25:07;;;;;;;0.40;0.20;;;;;;;20.86;55.40;101399.78;4911069;29;20123;-60
2022/01/11 01:27:33;;;;;;;0.45;0.28;;;;;;;20.87;55.55;101393.44;4906288;29;20028;-60
2022/01/11 01:29:58;;;;;;;0.30;0.10;;;;;;;20.88;55.65;101393.31;4910977;29;20380;-60
2022/01/11 01:32:24;;;;;;;1.23;0.75;;;;;;;20.90;55.75;101398.50;4911944;29;20474;-60
2022/01/11 01:34:50;;;;;;;0.10;0.10;;;;;;;20.91;55.65;101393.03;4911665;29;20518;-60
2022/01/11 01:37:16;;;;;;;0.25;0.15;;;;;;;20.93;55.64;101392.84;4907208;29;20298;-60
2022/01/11 01:39:42;;;;;;;0.40;0.17;;;;;;;21.11;55.12;101392.91;4893824;29;20650;-60
2022/01/11 01:42:11;;;;;;;0.35;0.20;;;;;;;21.06;55.22;101389.84;4903263;29;20063;-60
2022/01/11 01:44:36;;;;;;;0.25;0.20;;;;;;;20.96;55.60;101390.72;4912701;29;20071;-60
2022/01/11 01:47:02;;;;;;;0.10;0.10;;;;;;;21.05;55.19;101388.16;4907005;29;20024;-60
2022/01/11 01:49:29;;;;;;;1.05;0.20;;;;;;;20.96;55.31;101385.38;4912406;29;20065;-60
2022/01/11 01:51:54;;;;;;;0.17;0.10;;;;;;;20.96;55.39;101392.56;4911935;29;20028;-60
2022/01/11 01:54:21;;;;;;;0.28;0.13;;;;;;;21.17;54.95;101395.81;4908567;29;20044;-60
2022/01/11 01:56:47;;;;;;;0.38;0.22;;;;;;;21.25;54.45;101396.91;4912366;29;20032;-60
2022/01/11 01:59:12;;;;;;;0.50;0.20;;;;;;;21.25;54.52;101394.22;4912424;29;20028;-60
2022/01/11 02:01:45;;;;;;;0.40;0.20;;;;;;;21.22;54.46;101398.03;4914464;29;20382;-60
2022/01/11 02:04:11;;;;;;;0.50;0.22;;;;;;;21.15;54.60;101399.66;4914968;29;20123;-60
2022/01/11 02:06:37;;;;;;;1.23;0.30;;;;;;;21.15;54.58;101410.34;4914930;29;20163;-60
2022/01/11 02:09:03;;;;;;;0.68;0.28;;;;;;;21.20;54.25;101410.69;4905381;29;20115;-60
2022/01/11 02:11:28;;;;;;;0.30;0.20;;;;;;;21.21;54.32;101409.72;4901673;29;20080;-60
2022/01/11 02:13:54;;;;;;;0.40;0.20;;;;;;;21.15;54.44;101413.00;4915265;29;20552;-60
2022/01/11 02:16:21;;;;;;;0.45;0.22;;;;;;;21.10;54.48;101412.59;4914613;29;20118;-60
2022/01/11 02:18:47;;;;;;;0.28;0.20;;;;;;;21.19;54.21;101417.06;4914500;29;20036;-61
2022/01/11 02:21:13;;;;;;;0.32;0.20;;;;;;;21.12;54.32;101415.97;4913692;29;20036;-62
2022/01/11 02:23:38;;;;;;;2.15;0.30;;;;;;;21.23;53.98;101420.25;4914498;29;20043;-61
2022/01/11 02:26:04;;;;;;;0.43;0.30;;;;;;;21.05;54.34;101423.72;4913861;29;20036;-61
2022/01/11 02:28:31;;;;;;;0.25;0.20;;;;;;;21.04;54.46;101423.88;4915255;29;20123;-60
2022/01/11 02:30:58;;;;;;;0.50;0.32;;;;;;;21.06;54.23;101427.22;4914356;29;20098;-61
2022/01/11 02:33:32;;;;;;;0.47;0.22;;;;;;;21.04;54.26;101430.03;4896410;29;20037;-60
2022/01/11 02:36:14;;;;;;;0.22;0.20;;;;;;;20.98;54.48;101439.47;4896225;29;20518;-60
2022/01/11 02:38:39;;;;;;;0.30;0.20;;;;;;;20.97;54.35;101437.81;4912108;29;20390;-61
2022/01/11 02:41:05;;;;;;;0.38;0.28;;;;;;;20.95;54.38;101437.13;4913781;29;20028;-61
2022/01/11 02:43:31;;;;;;;0.80;0.22;;;;;;;20.93;54.39;101439.09;4914092;29;20067;-61
2022/01/11 02:46:01;;;;;;;0.60;0.30;;;;;;;20.92;54.34;101442.75;4914614;29;20067;-61
2022/01/11 02:48:28;;;;;;;0.32;0.28;;;;;;;20.92;54.50;101444.56;4912556;29;20056;-61
2022/01/11 02:50:53;;;;;;;0.82;0.40;;;;;;;20.92;54.33;101447.25;4914343;29;20024;-60
2022/01/11 02:53:19;;;;;;;1.38;0.32;;;;;;;20.89;54.28;101448.38;4910633;29;20389;-60
2022/01/11 02:55:45;;;;;;;0.40;0.20;;;;;;;20.94;54.30;101451.44;4910044;29;20024;-61
2022/01/11 02:58:12;;;;;;;0.50;0.10;;;;;;;20.89;54.42;101437.72;4913541;29;20036;-60
2022/01/11 03:00:39;;;;;;;0.82;0.32;;;;;;;20.99;54.27;101449.19;4914061;29;20020;-60
2022/01/11 03:03:09;;;;;;;0.10;0.03;;;;;;;21.18;54.01;101444.72;4915043;29;20516;-60
2022/01/11 03:05:35;;;;;;;0.60;0.20;;;;;;;21.15;54.18;101447.72;4914026;29;20474;-60
2022/01/11 03:08:00;;;;;;;0.30;0.20;;;;;;;21.17;54.26;101441.22;4914753;29;20038;-60
2022/01/11 03:10:32;;;;;;;0.10;0.10;;;;;;;21.20;54.27;101438.25;4913053;29;20036;-60
2022/01/11 03:13:03;;;;;;;0.30;0.15;;;;;;;21.25;54.28;101434.28;4896122;29;20511;-60
2022/01/11 03:15:29;;;;;;;0.20;0.20;;;;;;;21.30;54.18;101440.88;4896065;29;20112;-60
2022/01/11 03:17:54;;;;;;;0.50;0.20;;;;;;;21.42;53.94;101446.00;4895334;29;20537;-60
2022/01/11 03:20:19;;;;;;;0.20;0.10;;;;;;;21.45;53.73;101441.25;4895670;29;20068;-60
2022/01/11 03:22:45;;;;;;;0.60;0.22;;;;;;;21.34;54.02;101439.56;4897834;29;20471;-60
2022/01/11 03:25:12;;;;;;;0.38;0.10;;;;;;;21.32;54.08;101444.22;4913593;29;20064;-60
2022/01/11 03:27:38;;;;;;;1.10;0.20;;;;;;;21.33;54.03;101442.41;4914045;29;20039;-60
2022/01/11 03:30:05;;;;;;;0.47;0.17;;;;;;;21.33;54.00;101445.94;4914587;29;20041;-60
2022/01/11 03:32:30;;;;;;;0.40;0.20;;;;;;;21.34;53.93;101444.91;4914048;29;20036;-60
2022/01/11 03:34:56;;;;;;;0.30;0.25;;;;;;;21.33;53.94;101440.59;4907359;29;20028;-60
2022/01/11 03:37:21;;;;;;;0.30;0.20;;;;;;;21.31;53.91;101442.56;4895407;29;20439;-60
2022/01/11 03:39:47;;;;;;;0.10;0.10;;;;;;;21.31;53.81;101436.38;4898749;29;20447;-60
2022/01/11 03:42:13;;;;;;;0.25;0.10;;;;;;;21.30;53.81;101434.69;4902573;29;20518;-60
2022/01/11 03:44:39;;;;;;;0.80;0.22;;;;;;;21.30;53.83;101440.88;4895335;29;20060;-60
2022/01/11 03:47:05;;;;;;;0.95;0.20;;;;;;;21.29;53.68;101441.88;4905101;29;20423;-60
2022/01/11 03:49:31;;;;;;;0.47;0.10;;;;;;;21.32;53.65;101440.72;4897046;29;20060;-60
2022/01/11 03:51:56;;;;;;;0.22;0.20;;;;;;;21.31;53.61;101453.25;4894880;29;20071;-60
2022/01/11 03:54:28;;;;;;;0.20;0.20;;;;;;;21.29;53.58;101457.91;4900870;29;20128;-60
2022/01/11 03:56:54;;;;;;;0.20;0.10;;;;;;;21.27;53.70;101457.22;4895094;29;20060;-60
2022/01/11 03:59:21;;;;;;;0.50;0.30;;;;;;;21.26;53.62;101452.84;4896233;29;20098;-60
2022/01/11 04:01:47;;;;;;;0.85;0.25;;;;;;;21.23;53.59;101454.97;4913039;29;20040;-60
2022/01/11 04:04:12;;;;;;;0.35;0.30;;;;;;;21.22;53.43;101456.81;4913049;29;20028;-60
2022/01/11 04:06:39;;;;;;;0.60;0.22;;;;;;;21.19;53.64;101457.13;4913819;29;20027;-60
2022/01/11 04:09:08;;;;;;;0.40;0.20;;;;;;;21.18;53.58;101458.91;4913066;29;20028;-60
2022/01/11 04:11:33;;;;;;;1.10;0.40;;;;;;;21.16;53.58;101463.56;4911132;29;20070;-60
2022/01/11 04:13:59;;;;;;;0.47;0.30;;;;;;;21.13;53.72;101479.03;4913592;29;20028;-60
2022/01/11 04:16:24;;;;;;;0.38;0.38;;;;;;;21.07;53.62;101472.50;4913102;29;20036;-60
2022/01/11 04:18:50;;;;;;;0.35;0.20;;;;;;;21.04;53.84;101478.09;4902422;29;20064;-60
2022/01/11 04:21:15;;;;;;;0.30;0.25;;;;;;;21.02;53.87;101479.25;4898218;29;20467;-60
2022/01/11 04:23:41;;;;;;;0.10;0.10;;;;;;;20.99;53.86;101478.56;4911533;29;20416;-60
2022/01/11 04:26:07;;;;;;;0.20;0.20;;;;;;;21.00;53.83;101488.22;4909514;29;20387;-60
2022/01/11 04:28:32;;;;;;;0.28;0.17;;;;;;;20.99;53.77;101489.22;4894908;29;20036;-60
2022/01/11 04:30:59;;;;;;;0.32;0.22;;;;;;;20.97;53.78;101483.19;4894232;29;20021;-60
2022/01/11 04:33:28;;;;;;;1.35;0.40;;;;;;;20.94;53.74;101483.47;4894156;29;20029;-60
2022/01/11 04:35:55;;;;;;;0.47;0.20;;;;;;;20.96;53.97;101486.84;4894476;29;20032;-62
2022/01/11 04:38:23;;;;;;;0.35;0.20;;;;;;;20.97;53.98;101488.53;4898988;29;20119;-62
2022/01/11 04:40:49;;;;;;;0.38;0.17;;;;;;;20.99;54.00;101489.22;4912283;29;20385;-60
2022/01/11 04:43:15;;;;;;;1.00;0.10;;;;;;;21.04;54.04;101493.28;4894298;29;20116;-60
2022/01/11 04:45:40;;;;;;;0.95;0.20;;;;;;;21.10;54.06;101490.03;4894270;29;20124;-61
2022/01/11 04:48:06;;;;;;;0.52;0.30;;;;;;;21.11;54.11;101486.34;4906453;29;20052;-60
2022/01/11 04:50:32;;;;;;;0.05;0.00;;;;;;;21.14;54.02;101483.41;4894505;29;20028;-60
2022/01/11 04:52:58;;;;;;;0.35;0.15;;;;;;;21.17;54.19;101485.81;4908880;29;20143;-60
2022/01/11 04:55:24;;;;;;;0.20;0.20;;;;;;;21.18;54.09;101490.13;4912084;29;20034;-60
2022/01/11 04:57:50;;;;;;;0.10;0.10;;;;;;;21.20;54.04;101497.00;4911024;28;20036;-60
2022/01/11 05:00:17;;;;;;;0.15;0.13;;;;;;;21.28;53.75;101501.59;4911811;29;20482;-60
2022/01/11 05:02:43;;;;;;;0.93;0.30;;;;;;;21.25;53.93;101499.25;4911946;29;20024;-60
2022/01/11 05:05:10;;;;;;;0.73;0.20;;;;;;;21.27;53.77;101499.94;4913003;29;20093;-60
2022/01/11 05:07:35;;;;;;;0.30;0.20;;;;;;;21.27;53.84;101499.94;4898850;29;20063;-60
2022/01/11 05:10:01;;;;;;;0.35;0.17;;;;;;;21.29;53.79;101510.50;4894029;29;20108;-60
2022/01/11 05:12:26;;;;;;;0.75;0.10;;;;;;;21.27;53.71;101504.41;4894139;29;20059;-60
2022/01/11 05:14:52;;;;;;;0.68;0.20;;;;;;;21.45;53.21;101507.22;4894339;29;20111;-60
2022/01/11 05:17:17;;;;;;;0.38;0.20;;;;;;;21.51;53.04;101514.63;4900651;29;20463;-61
2022/01/11 05:19:43;;;;;;;0.38;0.20;;;;;;;21.52;52.95;101513.63;4894047;29;20035;-61
2022/01/11 05:22:09;;;;;;;0.40;0.20;;;;;;;21.50;52.87;101508.41;4897518;29;20075;-61
2022/01/11 05:24:35;;;;;;;1.30;0.17;;;;;;;21.56;52.81;101515.00;4906231;29;20123;-60
2022/01/11 05:27:00;;;;;;;0.60;0.35;;;;;;;21.47;53.09;101514.06;4910924;29;20032;-60
2022/01/11 05:29:26;;;;;;;0.30;0.17;;;;;;;21.41;53.09;101514.66;4894026;29;20024;-60
2022/01/11 05:31:51;;;;;;;0.47;0.28;;;;;;;21.41;52.91;101521.81;4904352;28;20035;-60
2022/01/11 05:34:16;;;;;;;0.50;0.20;;;;;;;21.36;53.03;101515.06;4912633;29;20040;-60
2022/01/11 05:36:42;;;;;;;0.28;0.20;;;;;;;21.40;52.99;101520.97;4902179;29;20565;-60
2022/01/11 05:39:07;;;;;;;0.43;0.17;;;;;;;21.35;53.10;101521.41;4897220;29;20089;-60
2022/01/11 05:41:33;;;;;;;0.75;0.20;;;;;;;21.39;52.85;101524.63;4909310;29;20024;-60
2022/01/11 05:43:59;;;;;;;0.38;0.20;;;;;;;21.38;52.89;101529.13;4915888;29;20525;-60
2022/01/11 05:46:25;;;;;;;0.30;0.20;;;;;;;21.37;52.90;101534.63;4910342;29;20044;-60
2022/01/11 05:48:50;;;;;;;0.10;0.10;;;;;;;21.35;52.76;101537.44;4896948;29;20037;-60
2022/01/11 05:51:16;;;;;;;0.52;0.28;;;;;;;21.33;52.92;101541.25;4900696;29;20024;-60
2022/01/11 05:53:43;;;;;;;0.43;0.20;;;;;;;21.33;52.97;101541.25;4908526;29;20562;-60
2022/01/11 05:56:08;;;;;;;0.30;0.20;;;;;;;21.32;52.75;101535.06;4896863;29;20090;-60
2022/01/11 05:58:34;;;;;;;0.20;0.17;;;;;;;21.26;52.85;101535.63;4896984;29;20068;-60
2022/01/11 06:01:00;;;;;;;0.10;0.10;;;;;;;21.16;53.21;101542.84;4912951;29;20215;-60
2022/01/11 06:03:25;;;;;;;0.40;0.20;;;;;;;21.25;53.07;101538.44;4896554;29;20037;-60
2022/01/11 06:05:51;;;;;;;0.15;0.10;;;;;;;21.31;52.81;101544.06;4897092;29;20086;-60
2022/01/11 06:08:16;;;;;;;0.70;0.30;;;;;;;21.30;52.88;101547.72;4914953;29;20032;-60
2022/01/11 06:10:47;;;;;;;0.40;0.10;;;;;;;21.31;52.84;101545.91;4914837;29;20079;-60
2022/01/11 06:13:13;;;;;;;0.10;0.10;;;;;;;21.18;53.36;101560.41;4915310;29;20083;-60
2022/01/11 06:15:38;;;;;;;0.08;0.08;;;;;;;21.17;53.41;101553.41;4915097;29;20106;-60
2022/01/11 06:18:05;;;;;;;0.38;0.10;;;;;;;21.20;53.34;101557.59;4909913;29;20413;-60
2022/01/11 06:20:31;;;;;;;1.10;0.20;;;;;;;21.21;53.38;101556.63;4915440;29;20024;-60
2022/01/11 06:22:56;;;;;;;0.10;0.08;;;;;;;21.25;53.32;101559.81;4913801;29;20491;-60
2022/01/11 06:25:22;;;;;;;0.10;0.10;;;;;;;21.27;53.35;101565.84;4914581;29;20506;-60
2022/01/11 06:27:47;;;;;;;0.20;0.10;;;;;;;21.29;53.29;101562.06;4914806;29;20114;-60
2022/01/11 06:30:15;;;;;;;0.10;0.03;;;;;;;21.31;53.33;101561.94;4915361;29;20032;-59
2022/01/11 06:32:43;;;;;;;0.52;0.13;;;;;;;21.31;53.21;101570.78;4910153;29;20036;-60
2022/01/11 06:35:10;;;;;;;0.90;0.20;;;;;;;21.31;53.36;101570.78;4915429;29;20038;-59
2022/01/11 06:37:36;;;;;;;0.32;0.10;;;;;;;21.32;53.35;101572.44;4914411;29;20032;-60
2022/01/11 06:40:03;;;;;;;0.32;0.20;;;;;;;21.30;53.29;101569.09;4912638;29;20082;-62
2022/01/11 06:42:29;;;;;;;1.23;0.25;;;;;;;21.35;53.18;101580.19;4909004;29;20486;-69
2022/01/11 06:44:54;;;;;;;0.40;0.10;;;;;;;21.36;52.97;101584.53;4905560;29;20032;-67
2022/01/11 06:47:19;;;;;;;0.32;0.17;;;;;;;21.30;53.33;101585.13;4914323;29;20028;-66
2022/01/11 06:49:45;;;;;;;3.72;0.10;;;;;;;21.31;53.61;101585.97;4914142;29;20377;-71
2022/01/11 06:52:10;;;;;;;3.17;0.10;;;;;;;21.32;53.68;101585.81;4904180;29;20458;-73
2022/01/11 06:54:36;;;;;;;0.65;0.20;;;;;;;21.35;53.63;101598.88;4910985;29;20032;-72
2022/01/11 06:57:01;;;;;;;1.25;0.20;;;;;;;21.46;53.64;101599.72;4914748;29;20028;-69
2022/01/11 06:59:27;;;;;;;3.53;0.20;;;;;;;21.48;53.56;101595.91;4913803;28;20078;-69
2022/01/11 07:01:52;;;;;;;2.78;0.25;;;;;;;21.53;53.38;101601.66;4914557;29;20039;-74
2022/01/11 07:04:18;;;;;;;9.93;0.30;;;;;;;21.57;53.44;101607.56;4911475;29;20042;-71
2022/01/11 07:06:43;;;;;;;4.05;0.60;;;;;;;21.61;53.35;101614.28;4902215;29;20048;-73
2022/01/11 07:09:08;;;;;;;2.30;0.28;;;;;;;21.66;53.13;101605.81;4913484;29;20060;-78
2022/01/11 07:11:34;;;;;;;4.22;0.47;;;;;;;21.66;53.27;101616.50;4914424;29;20548;-71
2022/01/11 07:14:03;;;;;;;0.60;0.25;;;;;;;21.65;53.28;101622.88;4913330;29;20063;-78
2022/01/11 07:16:29;;;;;;;1.80;0.15;;;;;;;21.49;53.62;101615.47;4912938;28;20442;-71
2022/01/11 07:18:54;;;;;;;4.35;0.50;;;;;;;21.42;53.78;101617.84;4913972;29;20028;-72
2022/01/11 07:21:20;;;;;;;2.38;0.30;;;;;;;21.41;53.99;101623.34;4914303;29;20032;-77
2022/01/11 07:23:45;;;;;;;7.63;0.30;;;;;;;21.37;54.01;101615.59;4912642;29;20550;-72
2022/01/11 07:26:10;;;;;;;5.93;0.40;;;;;;;21.36;54.02;101626.44;4913112;29;20472;-71
2022/01/11 07:28:36;;;;;;;3.58;0.20;;;;;;;21.34;54.06;101628.41;4913661;29;20028;-73
2022/01/11 07:31:02;;;;;;;9.77;0.50;;;;;;;21.35;54.27;101633.63;4913338;29;20403;-76
2022/01/11 07:33:28;;;;;;;0.85;0.10;;;;;;;21.38;54.40;101637.81;4911694;29;20123;-75
2022/01/11 07:35:53;;;;;;;5.25;0.20;;;;;;;21.42;54.46;101643.72;4909575;29;20111;-73
2022/01/11 07:38:19;;;;;;;5.30;0.57;;;;;;;21.43;54.49;101645.41;4907925;29;20028;-77
2022/01/11 07:40:44;;;;;;;4.65;0.60;;;;;;;21.56;54.26;101649.50;4911451;29;20360;-82
2022/01/11 07:43:10;;;;;;;4.47;0.65;;;;;;;21.61;54.15;101656.22;4903004;29;20032;-75
2022/01/11 07:45:35;;;;;;;4.05;0.57;;;;;;;21.64;54.37;101648.72;4910008;29;20028;-77
2022/01/11 07:48:01;;;;;;;0.85;0.40;;;;;;;21.70;54.06;101661.53;4913284;29;20394;-74
2022/01/11 07:50:26;;;;;;;3.33;0.32;;;;;;;21.70;53.94;101658.84;4906975;28;20056;-71
2022/01/11 07:52:52;;;;;;;1.05;0.30;;;;;;;21.74;53.84;101662.91;4924959;29;20560;-75
2022/01/11 07:55:18;;;;;;;3.95;0.30;;;;;;;21.84;53.37;101662.88;4923603;29;20031;-72
2022/01/11 07:57:44;;;;;;;2.83;0.45;;;;;;;21.83;53.40;101673.72;4925586;28;20039;-72
2022/01/11 08:00:10;;;;;;;3.55;1.05;;;;;;;21.85;53.43;101669.06;4928725;29;20488;-61
2022/01/11 08:02:35;;;;;;;9.65;1.05;;;;;;;22.01;52.96;101669.25;4932497;29;20047;-60
2022/01/11 08:05:01;;;;;;;5.57;0.47;;;;;;;21.97;52.95;101684.75;4929230;29;20036;-59
2022/01/11 08:07:26;;;;;;;5.10;0.50;;;;;;;21.91;52.94;101679.16;4930925;29;20111;-59
2022/01/11 08:09:52;;;;;;;7.32;0.38;;;;;;;21.81;52.96;101686.38;4927203;29;20107;-62
2022/01/11 08:12:17;;;;;;;4.13;0.45;;;;;;;21.61;53.90;101689.13;4932439;29;20236;-63
2022/01/11 08:14:42;;;;;;;10.82;0.50;;;;;;;21.59;54.28;101688.44;4931400;29;20043;-72
2022/01/11 08:17:08;;;;;;;7.35;0.80;;;;;;;21.47;54.58;101694.94;4931707;29;20037;-69
2022/01/11 08:19:33;;;;;;;4.50;0.40;;;;;;;21.44;54.79;101695.22;4932223;29;20039;-66
2022/01/11 08:21:59;;;;;;;19.60;1.00;;;;;;;21.43;55.23;101698.84;4932501;29;20115;-72
2022/01/11 08:24:25;;;;;;;10.50;1.85;;;;;;;21.42;55.01;101707.84;4931665;29;20035;-73
2022/01/11 08:26:51;;;;;;;7.78;2.05;;;;;;;21.41;54.96;101703.50;4931085;29;20032;-74
2022/01/11 08:29:18;;;;;;;9.70;1.42;;;;;;;21.35;54.64;101713.75;4923377;29;20047;-72
2022/01/11 08:31:47;;;;;;;6.28;1.52;;;;;;;21.29;53.66;101711.66;4932619;29;20034;-72
2022/01/11 08:34:14;;;;;;;4.25;1.90;;;;;;;21.19;52.75;101722.34;4932099;29;20050;-64
2022/01/11 08:36:44;;;;;;;10.32;2.42;;;;;;;21.07;53.18;101722.63;4931453;29;20485;-68
2022/01/11 08:39:11;;;;;;;4.05;1.15;;;;;;;21.22;53.70;101723.88;4931073;29;20513;-69
2022/01/11 08:41:37;;;;;;;4.93;1.10;;;;;;;21.07;54.07;101728.84;4924854;29;20047;-69
2022/01/11 08:44:03;;;;;;;4.10;1.30;;;;;;;21.08;54.26;101729.66;4913349;29;20047;-69
2022/01/11 08:46:29;;;;;;;4.63;1.13;;;;;;;21.46;53.46;101734.16;4918646;29;20043;-69
2022/01/11 08:48:54;;;;;;;6.93;1.30;;;;;;;21.56;53.23;101720.78;4932382;29;20070;-69
2022/01/11 08:51:19;;;;;;;3.72;1.02;;;;;;;21.59;53.22;101728.53;4931555;29;20477;-69
2022/01/11 08:53:45;;;;;;;3.15;1.05;;;;;;;21.68;53.04;101727.66;4931506;29;20036;-69
2022/01/11 08:56:15;;;;;;;1.65;0.80;;;;;;;21.95;52.44;101729.53;4931460;29;20039;-69
2022/01/11 08:58:40;;;;;;;4.45;0.82;;;;;;;21.91;52.64;101732.66;4924476;29;20027;-69
2022/01/11 09:01:06;;;;;;;2.05;0.50;;;;;;;21.88;52.87;101739.13;4930737;29;20028;-69
2022/01/11 09:03:31;;;;;;;0.90;0.43;;;;;;;21.87;52.90;101742.78;4930979;29;20027;-65
2022/01/11 09:05:56;;;;;;;2.10;0.50;;;;;;;21.89;52.83;101748.00;4929981;29;20115;-66
2022/01/11 09:08:22;;;;;;;4.53;0.70;;;;;;;21.87;52.90;101747.28;4936214;28;20031;-67
2022/01/11 09:10:48;;;;;;;3.38;0.32;;;;;;;21.86;53.35;101751.81;4971516;28;20023;-67
2022/01/11 09:13:14;;;;;;;0.82;0.40;;;;;;;21.86;53.40;101750.94;4931585;28;20035;-67
2022/01/11 09:15:40;;;;;;;2.25;0.90;;;;;;;21.85;53.40;101759.97;4998598;28;20091;-67
2022/01/11 09:18:05;;;;;;;1.10;0.43;;;;;;;21.83;53.35;101768.13;5031660;28;20383;-67
2022/01/11 09:20:31;;;;;;;2.33;0.50;;;;;;;21.85;53.36;101768.81;4960845;28;20024;-67
2022/01/11 09:22:56;;;;;;;0.93;0.40;;;;;;;21.87;53.29;101776.72;4949857;28;20417;-67
2022/01/11 09:25:22;;;;;;;1.52;0.50;;;;;;;21.87;53.28;101782.06;4978969;28;20064;-67
2022/01/11 09:27:47;;;;;;;0.88;0.40;;;;;;;21.85;53.34;101778.69;4918823;28;20032;-67
2022/01/11 09:30:14;;;;;;;1.40;0.47;;;;;;;21.85;53.17;101786.72;4912670;29;20055;-67
2022/01/11 09:32:41;;;;;;;2.97;0.47;;;;;;;21.81;53.11;101790.66;4927468;29;20070;-67
2022/01/11 09:35:09;;;;;;;1.88;0.68;;;;;;;21.83;53.22;101788.69;4930886;29;20035;-67
2022/01/11 09:37:35;;;;;;;1.95;0.47;;;;;;;21.75;53.31;101786.72;4922866;29;20042;-68
2022/01/11 09:40:01;;;;;;;6.05;0.40;;;;;;;21.72;53.33;101790.53;4930518;29;20032;-67
2022/01/11 09:42:27;;;;;;;1.30;0.60;;;;;;;21.70;53.39;101800.53;4930228;29;20039;-67
2022/01/11 09:44:53;;;;;;;2.65;0.47;;;;;;;21.69;53.27;101798.00;4931533;29;20478;-67
2022/01/11 09:47:18;;;;;;;0.40;0.30;;;;;;;21.39;53.98;101797.16;4931208;29;20449;-67
2022/01/11 09:49:44;;;;;;;1.58;0.57;;;;;;;21.34;54.11;101810.91;4931542;29;20029;-67
2022/01/11 09:52:11;;;;;;;2.78;0.40;;;;;;;21.37;53.97;101807.13;4930004;29;20575;-67
2022/01/11 09:54:42;;;;;;;0.73;0.30;;;;;;;21.35;54.10;101812.63;4930589;29;20094;-67
2022/01/11 09:57:09;;;;;;;0.52;0.30;;;;;;;21.29;54.13;101815.00;4931845;29;20190;-67
2022/01/11 09:59:35;;;;;;;0.90;0.43;;;;;;;21.31;53.98;101816.56;4930875;29;20032;-67
2022/01/11 10:02:00;;;;;;;2.03;0.20;;;;;;;21.20;54.28;101817.50;4936857;28;20074;-67
2022/01/11 10:04:32;;;;;;;0.55;0.30;;;;;;;21.14;54.33;101819.91;4931295;29;20149;-67
2022/01/11 10:07:00;;;;;;;1.17;0.57;;;;;;;21.28;53.96;101822.16;4916475;29;20062;-69
2022/01/11 10:09:28;;;;;;;0.60;0.30;;;;;;;21.23;54.10;101827.09;4930638;29;20031;-70
2022/01/11 10:11:57;;;;;;;0.88;0.30;;;;;;;21.32;53.90;101823.56;4921125;29;20025;-66
2022/01/11 10:14:35;;;;;;;0.70;0.40;;;;;;;21.28;53.83;101832.84;4919726;29;20042;-66
2022/01/11 10:17:12;;;;;;;1.75;0.28;;;;;;;21.20;54.17;101830.03;4931094;29;20043;-66
2022/01/11 10:20:00;;;;;;;2.05;0.40;;;;;;;21.23;54.19;101840.44;4930480;29;20497;-66
2022/01/11 10:22:29;;;;;;;1.00;0.30;;;;;;;21.32;54.10;101844.94;4933498;29;20028;-66
2022/01/11 10:24:57;;;;;;;0.55;0.40;;;;;;;21.42;53.90;101857.47;4934134;29;20031;-66
2022/01/11 10:27:34;;;;;;;1.70;0.55;;;;;;;21.60;53.73;101858.47;4930755;29;20035;-66
2022/01/11 10:30:08;;;;;;;0.80;0.40;;;;;;;21.46;54.13;101867.75;4915199;28;20482;-67
2022/01/11 10:32:47;;;;;;;1.05;0.55;;;;;;;21.47;54.04;101869.47;4928826;29;20028;-67
2022/01/11 10:35:42;;;;;;;0.47;0.20;;;;;;;21.52;54.04;101863.69;4934085;29;20039;-66
2022/01/11 10:38:09;;;;;;;1.02;0.20;;;;;;;21.54;54.18;101861.72;4933416;29;20456;-66
2022/01/11 10:40:41;;;;;;;0.93;0.40;;;;;;;21.59;54.01;101862.16;4933234;29;20028;-66
2022/01/11 10:43:08;;;;;;;1.60;0.30;;;;;;;21.61;53.86;101854.00;4934143;28;20111;-66
2022/01/11 10:45:37;;;;;;;2.60;0.22;;;;;;;21.61;53.84;101854.84;4933450;29;20042;-66
2022/01/11 10:48:08;;;;;;;2.00;0.30;;;;;;;21.61;53.72;101854.84;4933997;29;20073;-66
2022/01/11 10:50:40;;;;;;;0.30;0.20;;;;;;;21.70;53.62;101862.00;4931890;29;20042;-66
2022/01/11 10:53:13;;;;;;;1.52;0.43;;;;;;;21.83;53.26;101859.03;4931574;29;20110;-66
2022/01/11 10:55:40;;;;;;;0.50;0.30;;;;;;;21.75;53.47;101861.56;4929156;29;20063;-66
2022/01/11 10:58:08;;;;;;;0.28;0.20;;;;;;;21.75;53.36;101862.41;4929808;29;20549;-66
2022/01/11 11:00:45;;;;;;;0.20;0.17;;;;;;;21.87;53.19;101859.59;4914711;29;20394;-66
2022/01/11 11:03:15;;;;;;;0.47;0.20;;;;;;;21.99;52.84;101874.50;4914647;29;20040;-66
2022/01/11 11:06:11;;;;;;;0.93;0.30;;;;;;;21.94;52.61;101874.94;4914682;29;20060;-66
2022/01/11 11:08:44;;;;;;;0.68;0.57;;;;;;;22.08;52.46;101878.16;4917108;29;20043;-66
2022/01/11 11:11:12;;;;;;;0.22;0.20;;;;;;;22.07;52.48;101881.78;4930254;29;20384;-66
2022/01/11 11:13:40;;;;;;;1.10;0.32;;;;;;;21.96;52.71;101872.94;4931734;29;20039;-66
2022/01/11 11:16:17;;;;;;;0.17;0.15;;;;;;;21.86;52.69;101872.13;4932881;29;20032;-66
2022/01/11 11:18:47;;;;;;;0.40;0.20;;;;;;;21.63;53.33;101876.91;4933494;29;20028;-66
2022/01/11 11:21:17;;;;;;;0.10;0.10;;;;;;;21.63;53.34;101874.25;4932737;29;20094;-66
2022/01/11 11:23:43;;;;;;;0.25;0.10;;;;;;;21.99;52.45;101877.16;4933461;29;20035;-66
2022/01/11 11:26:09;;;;;;;1.17;0.20;;;;;;;21.99;52.45;101877.16;4932771;29;20039;-66
2022/01/11 11:28:35;;;;;;;1.75;0.30;;;;;;;21.80;52.72;101875.38;4931729;29;20024;-66